createdAt,value
2022-11-20T00:00:12.212Z,24.33
2022-11-20T00:05:11.487Z,25.17
2022-11-20T00:10:11.972Z,26.42
2022-11-20T00:15:12.074Z,26.33
2022-11-20T00:20:12.350Z,24.67
2022-11-20T00:25:12.758Z,26.08
2022-11-20T00:30:14.837Z,27.35
2022-11-20T00:35:17.009Z,27.38
2022-11-20T00:40:17.462Z,26.00
2022-11-20T00:45:18.106Z,27.23
2022-11-20T00:50:17.219Z,27.40
2022-11-20T00:55:17.807Z,25.08
2022-11-20T01:00:19.338Z,25.45
2022-11-20T01:05:18.399Z,23.88
2022-11-20T01:10:19.245Z,23.15
2022-11-20T01:15:18.406Z,22.60
2022-11-20T01:20:17.522Z,23.17
2022-11-20T01:25:16.620Z,22.40
2022-11-20T01:30:17.196Z,23.42
2022-11-20T01:35:16.266Z,21.70
2022-11-20T01:40:15.555Z,24.00
2022-11-20T01:45:58.257Z,23.65
2022-11-20T01:50:57.926Z,21.87
2022-11-20T01:56:01.292Z,21.23
2022-11-20T02:01:01.791Z,21.33
2022-11-20T02:06:08.888Z,21.42
2022-11-20T02:11:08.424Z,23.33
2022-11-20T02:16:12.440Z,22.00
2022-11-20T02:21:19.862Z,18.25
2022-11-20T02:26:22.244Z,18.05
2022-11-20T02:31:21.299Z,18.63
2022-11-20T02:36:20.363Z,18.67
2022-11-20T02:41:20.807Z,20.80
2022-11-20T02:46:19.903Z,19.52
2022-11-20T02:51:18.776Z,17.85
2022-11-20T02:56:18.731Z,17.73
2022-11-20T03:01:19.641Z,17.42
2022-11-20T03:06:18.858Z,19.02
2022-11-20T03:11:18.028Z,19.17
2022-11-20T03:16:20.404Z,20.60
2022-11-20T03:21:19.307Z,19.02
2022-11-20T03:26:20.000Z,18.30
2022-11-20T03:31:21.984Z,18.95
2022-11-20T03:36:22.278Z,20.27
2022-11-20T03:41:22.944Z,22.10
2022-11-20T03:46:23.601Z,21.25
2022-11-20T03:51:24.118Z,22.98
2022-11-20T03:56:25.538Z,23.63
2022-11-20T04:01:27.740Z,23.65
2022-11-20T04:06:28.678Z,22.63
2022-11-20T04:11:30.388Z,21.75
2022-11-20T04:16:33.160Z,21.27
2022-11-20T04:21:32.197Z,22.55
2022-11-20T04:26:32.583Z,26.83
2022-11-20T04:31:35.543Z,24.27
2022-11-20T04:36:35.521Z,26.38
2022-11-20T04:41:36.427Z,23.90
2022-11-20T04:46:39.730Z,24.08
2022-11-20T04:56:37.381Z,24.27
2022-11-20T05:01:38.139Z,27.23
2022-11-20T05:06:37.122Z,23.17
2022-11-20T05:11:36.109Z,25.80
2022-11-20T05:16:38.053Z,23.80
2022-11-20T05:21:37.127Z,23.80
2022-11-20T05:26:36.006Z,23.65
2022-11-20T05:31:34.941Z,22.90
2022-11-20T05:36:35.371Z,23.98
2022-11-20T05:41:35.853Z,24.80
2022-11-20T05:46:34.812Z,23.33
2022-11-20T05:51:35.173Z,24.48
2022-11-20T05:56:34.929Z,23.48
2022-11-20T06:01:33.894Z,21.65
2022-11-20T06:06:34.301Z,20.58
2022-11-20T06:11:33.243Z,19.63
2022-11-20T06:16:32.182Z,18.52
2022-11-20T06:21:32.183Z,21.00
2022-11-20T06:26:33.123Z,19.70
2022-11-20T06:31:39.197Z,19.48
2022-11-20T06:36:38.080Z,19.17
2022-11-20T06:41:39.034Z,19.25
2022-11-20T06:46:38.840Z,18.80
2022-11-20T06:51:39.549Z,19.70
2022-11-20T06:56:45.679Z,19.15
2022-11-20T07:01:52.271Z,16.90
2022-11-20T07:06:52.448Z,18.25
2022-11-20T07:11:52.680Z,17.55
2022-11-20T07:16:51.514Z,16.42
2022-11-20T07:21:50.335Z,15.73
2022-11-20T07:26:50.234Z,16.98
2022-11-20T07:31:50.482Z,15.45
2022-11-20T07:36:49.327Z,16.48
2022-11-20T07:41:48.132Z,17.00
2022-11-20T07:46:46.938Z,15.75
2022-11-20T07:51:51.766Z,16.65
2022-11-20T07:56:51.252Z,20.25
2022-11-20T08:01:50.235Z,16.70
2022-11-20T08:06:50.788Z,16.67
2022-11-20T08:12:07.164Z,18.13
2022-11-20T08:17:05.955Z,16.10
2022-11-20T08:22:06.211Z,15.60
2022-11-20T08:27:05.210Z,16.88
2022-11-20T08:32:04.196Z,15.45
2022-11-20T08:37:05.772Z,16.63
2022-11-20T08:42:08.911Z,15.90
2022-11-20T08:47:08.091Z,15.05
2022-11-20T08:52:08.298Z,15.07
2022-11-20T08:57:07.299Z,17.73
2022-11-20T09:02:06.488Z,17.17
2022-11-20T09:07:05.462Z,18.02
2022-11-20T09:12:08.196Z,16.27
2022-11-20T09:17:08.828Z,16.27
2022-11-20T09:22:07.817Z,15.68
2022-11-20T09:27:08.418Z,15.02
2022-11-20T09:32:07.636Z,17.60
2022-11-20T09:37:07.791Z,16.95
2022-11-20T09:42:34.974Z,16.73
2022-11-20T09:47:45.076Z,18.42
2022-11-20T09:52:54.603Z,17.20
2022-11-20T09:57:58.867Z,17.05
2022-11-20T10:03:17.127Z,15.98
2022-11-20T10:08:24.968Z,16.13
2022-11-20T10:13:39.560Z,15.38
2022-11-20T10:18:55.446Z,15.30
2022-11-20T10:24:09.643Z,17.30
2022-11-20T10:29:15.454Z,15.52
2022-11-20T10:34:23.233Z,24.40
2022-11-20T10:39:31.862Z,17.38
2022-11-20T10:45:06.640Z,17.75
2022-11-20T10:50:11.960Z,18.75
2022-11-20T10:55:26.960Z,18.83
2022-11-20T11:00:27.574Z,20.95
2022-11-20T11:05:39.264Z,18.45
2022-11-20T11:10:50.618Z,20.45
2022-11-20T11:15:51.246Z,20.42
2022-11-20T11:20:53.219Z,19.90
2022-11-20T11:26:00.309Z,19.95
2022-11-20T11:31:00.655Z,19.13
2022-11-20T11:36:02.171Z,21.08
2022-11-20T11:41:01.784Z,20.73
2022-11-20T11:46:02.676Z,21.45
2022-11-20T11:51:01.643Z,21.92
2022-11-20T11:56:10.009Z,21.83
2022-11-20T12:01:27.284Z,25.42
2022-11-20T12:06:30.899Z,23.42
2022-11-20T12:11:35.392Z,21.75
2022-11-20T12:16:38.990Z,23.65
2022-11-20T12:21:47.742Z,20.17
2022-11-20T12:27:04.255Z,22.88
2022-11-20T12:32:38.777Z,24.23
2022-11-20T12:37:50.519Z,21.65
2022-11-20T12:43:19.901Z,27.30
2022-11-20T12:48:46.512Z,26.55
2022-11-20T12:53:58.736Z,34.72
2022-11-20T12:59:10.571Z,24.88
2022-11-20T13:09:23.600Z,24.42
2022-11-20T13:14:35.049Z,26.80
2022-11-20T13:19:36.119Z,28.65
2022-11-20T13:24:34.964Z,30.40
2022-11-20T13:29:35.385Z,35.58
2022-11-20T13:34:37.071Z,30.30
2022-11-20T13:39:36.973Z,29.33
2022-11-20T13:44:40.008Z,28.05
2022-11-20T13:55:04.359Z,27.98
2022-11-20T14:00:13.076Z,26.90
2022-11-20T14:05:22.716Z,29.40
2022-11-20T14:10:28.334Z,27.80
2022-11-20T14:15:32.407Z,32.13
2022-11-20T14:20:33.381Z,32.30
2022-11-20T14:25:32.222Z,25.88
2022-11-20T14:30:40.300Z,25.05
2022-11-20T14:35:47.703Z,23.80
2022-11-20T14:40:47.142Z,23.52
2022-11-20T14:45:46.733Z,26.05
2022-11-20T14:50:47.073Z,27.33
2022-11-20T14:55:45.905Z,20.98
2022-11-20T15:00:55.246Z,24.20
2022-11-20T15:05:55.493Z,24.25
2022-11-20T15:10:55.317Z,23.65
2022-11-20T15:15:56.048Z,18.75
2022-11-20T15:20:57.543Z,20.60
2022-11-20T15:25:56.443Z,19.15
2022-11-20T15:30:56.841Z,20.20
2022-11-20T15:35:57.018Z,20.63
2022-11-20T15:40:55.810Z,20.05
2022-11-20T15:45:59.093Z,21.58
2022-11-20T15:51:03.025Z,24.40
2022-11-20T15:56:01.786Z,24.80
2022-11-20T16:01:00.638Z,23.90
2022-11-20T16:06:00.905Z,33.50
2022-11-20T16:10:59.617Z,33.70
2022-11-20T16:16:00.831Z,27.42
2022-11-20T16:21:36.314Z,21.10
2022-11-20T16:26:42.620Z,20.42
2022-11-20T16:31:58.261Z,18.65
2022-11-20T16:42:06.283Z,21.17
2022-11-20T16:47:06.150Z,19.23
2022-11-20T16:52:06.451Z,18.08
2022-11-20T16:57:29.734Z,35.72
2022-11-20T17:08:18.135Z,13.65
2022-11-20T17:13:48.945Z,15.82
2022-11-20T17:18:58.313Z,19.17
2022-11-20T17:24:04.748Z,17.70
2022-11-20T17:29:05.922Z,19.60
2022-11-20T17:34:04.707Z,22.15
2022-11-20T17:39:04.892Z,21.08
2022-11-20T17:44:03.660Z,21.65
2022-11-20T17:49:05.014Z,23.92
2022-11-20T17:54:08.519Z,18.27
2022-11-20T17:59:28.688Z,16.10
2022-11-20T18:04:28.006Z,10.48
2022-11-20T18:09:28.282Z,7.10
2022-11-20T18:14:36.636Z,7.15
2022-11-20T18:19:42.559Z,5.70
2022-11-20T18:24:46.276Z,7.28
2022-11-20T18:29:48.202Z,5.70
2022-11-20T18:34:47.225Z,2.85
2022-11-20T18:39:47.439Z,3.25
2022-11-20T18:44:55.206Z,3.00
2022-11-20T18:49:57.273Z,3.30
2022-11-20T18:54:57.925Z,2.93
2022-11-20T19:00:03.612Z,3.33
2022-11-20T19:05:06.192Z,2.92
2022-11-20T19:10:07.273Z,3.22
2022-11-20T19:15:06.947Z,3.20
2022-11-20T19:20:06.351Z,3.95
2022-11-20T19:25:07.646Z,7.60
2022-11-20T19:30:07.336Z,6.97
2022-11-20T19:35:07.030Z,4.43
2022-11-20T19:40:08.570Z,5.30
2022-11-20T19:45:08.887Z,6.22
2022-11-20T19:50:09.382Z,6.60
2022-11-20T19:55:10.945Z,7.95
2022-11-20T20:00:10.995Z,7.55
2022-11-20T20:05:10.106Z,7.63
2022-11-20T20:10:11.513Z,7.53
2022-11-20T20:15:11.039Z,9.18
2022-11-20T20:20:10.819Z,8.90
2022-11-20T20:25:11.264Z,8.35
2022-11-20T20:30:12.163Z,9.48
2022-11-20T20:35:13.653Z,9.63
2022-11-20T20:40:15.472Z,10.43
2022-11-20T20:45:14.420Z,12.25
2022-11-20T20:50:13.825Z,15.40
2022-11-20T20:55:14.041Z,17.85
2022-11-20T21:00:13.368Z,13.55
2022-11-20T21:05:12.457Z,15.60
2022-11-20T21:10:11.194Z,15.18
2022-11-20T21:15:12.270Z,14.98
2022-11-20T21:20:32.023Z,14.60
2022-11-20T21:25:30.862Z,14.80
2022-11-20T21:30:30.948Z,12.52
2022-11-20T21:35:29.679Z,10.98
2022-11-20T21:40:28.496Z,12.73
2022-11-20T21:45:27.304Z,10.15
2022-11-20T21:50:28.692Z,9.48
2022-11-20T21:55:27.425Z,8.60
2022-11-20T22:00:26.219Z,9.95
2022-11-20T22:05:25.116Z,11.68
2022-11-20T22:10:26.162Z,8.98
2022-11-20T22:15:53.658Z,9.35
2022-11-20T22:20:46.442Z,10.93
2022-11-20T22:25:46.637Z,9.75
2022-11-20T22:30:45.356Z,8.27
2022-11-20T22:35:44.087Z,10.38
2022-11-20T22:40:43.913Z,11.40
2022-11-20T22:45:45.751Z,9.70
2022-11-20T22:50:47.006Z,8.50
2022-11-20T22:55:50.145Z,7.32
2022-11-20T23:00:50.414Z,7.82
2022-11-20T23:05:49.163Z,9.10
2022-11-20T23:10:47.921Z,8.73
2022-11-20T23:15:53.689Z,8.38
2022-11-20T23:20:52.394Z,9.63
2022-11-20T23:25:51.076Z,8.70
2022-11-20T23:30:51.183Z,7.25
2022-11-20T23:35:54.134Z,7.10
2022-11-20T23:40:53.931Z,7.22
2022-11-20T23:45:55.194Z,7.90
2022-11-20T23:50:54.225Z,7.85
2022-11-20T23:55:54.792Z,8.57
